Time;durP1;ratioP1;P1;durP2;ratioP2;P2;SDS_P1;SDS_P2;PMS_P1;PMS_P2;Temp;Humidity;BMP_temperature;BMP_pressure;BME280_temperature;BME280_humidity;BME280_pressure;Samples;Min_cycle;Max_cycle;Signal;HPM_P1;HPM_P2
2022/03/19 00:02:21;;;;;;;19.63;15.05;;;13.50;48.20;;;;;;5120851;28;20015;-67
2022/03/19 00:04:46;;;;;;;20.35;15.57;;;13.60;48.20;;;;;;5121058;28;20070;-67
2022/03/19 00:07:13;;;;;;;21.45;16.00;;;13.50;48.20;;;;;;5120866;28;20023;-67
2022/03/19 00:09:39;;;;;;;21.33;16.73;;;13.50;48.10;;;;;;5120963;27;20023;-66
2022/03/19 00:12:06;;;;;;;20.92;15.98;;;13.50;48.20;;;;;;5120915;28;20026;-67
2022/03/19 00:14:31;;;;;;;22.63;17.30;;;13.50;48.20;;;;;;5120803;27;20029;-66
2022/03/19 00:16:57;;;;;;;24.77;17.10;;;13.50;48.20;;;;;;5120819;28;20031;-66
2022/03/19 00:19:23;;;;;;;20.23;15.88;;;13.50;48.20;;;;;;5120752;27;20035;-65
2022/03/19 00:21:50;;;;;;;19.98;15.88;;;13.50;48.20;;;;;;5120701;28;20091;-67
2022/03/19 00:24:15;;;;;;;19.70;15.68;;;13.50;48.20;;;;;;5120685;28;20352;-66
2022/03/19 00:26:41;;;;;;;22.13;17.38;;;13.50;48.20;;;;;;5120607;27;20023;-66
2022/03/19 00:29:08;;;;;;;19.88;16.30;;;13.50;48.20;;;;;;5120577;28;20023;-67
2022/03/19 00:31:34;;;;;;;20.90;16.20;;;13.50;48.20;;;;;;5120574;28;20039;-66
2022/03/19 00:33:59;;;;;;;20.52;16.42;;;13.50;48.20;;;;;;5120453;28;20020;-67
2022/03/19 00:36:25;;;;;;;22.17;16.85;;;13.50;48.30;;;;;;5120453;28;20038;-66
2022/03/19 00:38:51;;;;;;;20.55;16.27;;;13.50;48.20;;;;;;5120403;28;20049;-67
2022/03/19 00:41:16;;;;;;;21.25;17.10;;;13.50;48.20;;;;;;5120380;27;20069;-66
2022/03/19 00:43:43;;;;;;;22.67;17.30;;;13.50;48.20;;;;;;5120244;28;20026;-67
2022/03/19 00:46:09;;;;;;;20.95;16.92;;;13.50;48.20;;;;;;5120108;28;20043;-66
2022/03/19 00:48:34;;;;;;;19.63;15.55;;;13.50;48.30;;;;;;5120275;28;20046;-67
2022/03/19 00:51:00;;;;;;;20.88;16.95;;;13.50;48.30;;;;;;5120153;28;20073;-67
2022/03/19 00:53:26;;;;;;;20.27;16.17;;;13.50;48.30;;;;;;5120104;28;20037;-67
2022/03/19 00:55:51;;;;;;;21.23;16.40;;;13.50;48.30;;;;;;5120155;28;20095;-66
2022/03/19 00:58:18;;;;;;;22.30;16.70;;;13.50;48.30;;;;;;5120075;28;20023;-66
2022/03/19 01:00:43;;;;;;;20.35;16.27;;;13.50;48.30;;;;;;5118761;28;20249;-66
2022/03/19 01:03:09;;;;;;;20.85;15.85;;;13.50;48.30;;;;;;5120041;28;20020;-67
2022/03/19 01:05:35;;;;;;;19.70;15.65;;;13.50;48.30;;;;;;5119931;28;20083;-66
2022/03/19 01:08:01;;;;;;;22.45;16.13;;;13.50;48.30;;;;;;5119925;28;20047;-66
2022/03/19 01:10:29;;;;;;;20.25;15.30;;;13.50;48.30;;;;;;5119912;28;20027;-66
2022/03/19 01:12:56;;;;;;;20.08;16.05;;;13.50;48.30;;;;;;5119898;28;20031;-66
2022/03/19 01:15:23;;;;;;;22.50;16.70;;;13.50;48.30;;;;;;5119885;28;20035;-66
2022/03/19 01:17:49;;;;;;;19.58;16.30;;;13.50;48.30;;;;;;5119889;28;20023;-67
2022/03/19 01:20:16;;;;;;;20.77;16.27;;;13.50;48.30;;;;;;5120135;28;20057;-67
2022/03/19 01:22:43;;;;;;;24.02;17.08;;;13.50;48.30;;;;;;5119706;28;20035;-66
2022/03/19 01:25:10;;;;;;;19.30;15.52;;;13.40;48.30;;;;;;5119782;28;20026;-66
2022/03/19 01:27:38;;;;;;;19.98;16.27;;;13.40;48.30;;;;;;5119666;28;20024;-66
2022/03/19 01:30:06;;;;;;;19.70;15.65;;;13.40;48.30;;;;;;5119722;28;20065;-68
2022/03/19 01:32:33;;;;;;;23.42;16.92;;;13.40;48.40;;;;;;5119714;28;20165;-66
2022/03/19 01:34:59;;;;;;;20.52;16.02;;;13.40;48.30;;;;;;5119721;28;20339;-65
2022/03/19 01:37:25;;;;;;;21.75;16.58;;;13.40;48.30;;;;;;5119686;28;20031;-67
2022/03/19 01:39:54;;;;;;;19.90;15.82;;;13.40;48.30;;;;;;5118343;28;20027;-67
2022/03/19 01:42:32;;;;;;;21.40;16.08;;;13.40;48.30;;;;;;5118320;28;20039;-66
2022/03/19 01:44:59;;;;;;;20.10;15.65;;;13.40;48.30;;;;;;5119424;28;20068;-65
2022/03/19 01:47:27;;;;;;;21.95;17.60;;;13.40;48.40;;;;;;5119483;28;20027;-65
2022/03/19 01:49:52;;;;;;;20.55;16.75;;;13.40;48.40;;;;;;5119552;28;20049;-66
2022/03/19 01:52:18;;;;;;;19.50;15.07;;;13.40;48.40;;;;;;5119533;28;20050;-66
2022/03/19 01:54:47;;;;;;;19.98;16.27;;;13.40;48.40;;;;;;5119388;28;20083;-66
2022/03/19 01:57:14;;;;;;;;;;;13.40;48.40;;;;;;5119911;28;20061;-67
2022/03/19 01:59:42;;;;;;;20.30;15.95;;;13.40;48.40;;;;;;5119422;28;19912;-67
2022/03/19 02:02:10;;;;;;;20.63;15.38;;;13.40;48.40;;;;;;5119433;28;20023;-66
2022/03/19 02:04:37;;;;;;;20.98;15.88;;;13.40;48.40;;;;;;5119412;28;20039;-67
2022/03/19 02:07:06;;;;;;;20.35;15.40;;;13.40;48.40;;;;;;5118016;28;20035;-67
2022/03/19 02:09:33;;;;;;;21.48;16.08;;;13.40;48.40;;;;;;5119319;28;20028;-67
2022/03/19 02:11:59;;;;;;;18.52;15.20;;;13.40;48.40;;;;;;5119358;28;20023;-66
2022/03/19 02:14:25;;;;;;;18.73;15.73;;;13.30;48.40;;;;;;5119266;28;20015;-66
2022/03/19 02:16:51;;;;;;;21.58;16.30;;;13.40;49.10;;;;;;5119211;28;20217;-67
2022/03/19 02:19:17;;;;;;;20.55;16.20;;;13.40;48.50;;;;;;5119203;28;20028;-67
2022/03/19 02:21:46;;;;;;;20.38;16.02;;;13.40;48.50;;;;;;5119255;28;20381;-66
2022/03/19 02:26:57;;;;;;;21.75;16.45;;;13.30;48.50;;;;;;5122897;28;20034;-68
2022/03/19 02:29:23;;;;;;;19.25;15.68;;;13.40;48.50;;;;;;5122932;28;20016;-66
2022/03/19 02:31:52;;;;;;;21.08;16.17;;;13.30;48.50;;;;;;5122750;28;20228;-67
2022/03/19 02:34:18;;;;;;;21.20;17.17;;;13.30;48.50;;;;;;5122724;28;20024;-66
2022/03/19 02:36:45;;;;;;;20.05;16.35;;;13.30;48.60;;;;;;5122681;28;20065;-66
2022/03/19 02:39:19;;;;;;;19.73;16.00;;;13.30;48.50;;;;;;5122749;27;20051;-66
2022/03/19 02:41:49;;;;;;;19.40;16.25;;;13.30;48.60;;;;;;5122713;28;20031;-67
2022/03/19 02:44:16;;;;;;;19.48;15.27;;;13.30;48.60;;;;;;5122595;28;20180;-67
2022/03/19 02:47:03;;;;;;;23.23;16.55;;;13.30;48.60;;;;;;5122340;28;20043;-67
2022/03/19 02:49:29;;;;;;;19.80;15.75;;;13.30;48.50;;;;;;5122541;28;20030;-67
2022/03/19 02:51:57;;;;;;;21.25;16.23;;;13.30;48.50;;;;;;5122266;28;20055;-67
2022/03/19 02:54:28;;;;;;;21.55;16.23;;;13.30;48.50;;;;;;5122419;28;20027;-66
2022/03/19 02:56:55;;;;;;;22.65;16.92;;;13.30;48.60;;;;;;5122398;28;20023;-67
2022/03/19 02:59:23;;;;;;;20.70;15.95;;;13.30;48.70;;;;;;5122284;28;20047;-67
2022/03/19 03:02:00;;;;;;;18.70;15.35;;;13.20;48.60;;;;;;5122273;28;20342;-67
2022/03/19 03:04:26;;;;;;;19.02;15.00;;;13.30;48.70;;;;;;5120587;28;20036;-66
2022/03/19 03:06:54;;;;;;;21.08;16.17;;;13.20;48.60;;;;;;5122191;28;20022;-66
2022/03/19 03:09:22;;;;;;;19.60;16.08;;;13.20;48.70;;;;;;5122133;28;20011;-67
2022/03/19 03:11:48;;;;;;;24.00;17.37;;;13.20;48.60;;;;;;5122126;28;20041;-67
2022/03/19 03:14:14;;;;;;;18.92;15.05;;;13.20;48.60;;;;;;5122045;28;20016;-66
2022/03/19 03:16:41;;;;;;;19.52;15.50;;;13.20;48.60;;;;;;5121979;28;20031;-67
2022/03/19 03:19:09;;;;;;;18.83;15.80;;;13.20;48.70;;;;;;5121976;28;20211;-67
2022/03/19 03:21:36;;;;;;;19.17;15.65;;;13.20;48.60;;;;;;5121832;28;20076;-66
2022/03/19 03:24:03;;;;;;;21.75;16.42;;;13.20;48.70;;;;;;5121810;28;20076;-66
2022/03/19 03:26:30;;;;;;;20.35;15.98;;;13.20;48.70;;;;;;5121664;28;20027;-66
2022/03/19 03:28:57;;;;;;;19.67;14.98;;;13.20;48.70;;;;;;5121712;28;20343;-67
2022/03/19 03:31:23;;;;;;;19.17;15.35;;;13.20;48.70;;;;;;5121710;28;20020;-68
2022/03/19 03:33:49;;;;;;;20.38;15.70;;;13.20;48.70;;;;;;5121632;28;20012;-67
2022/03/19 03:36:15;;;;;;;20.83;16.42;;;13.20;48.70;;;;;;5120463;28;20083;-66
2022/03/19 03:38:41;;;;;;;20.60;16.50;;;13.20;48.70;;;;;;5121480;28;20049;-66
2022/03/19 03:41:07;;;;;;;19.33;15.60;;;13.20;48.70;;;;;;5121463;28;20051;-66
2022/03/19 03:43:33;;;;;;;20.83;16.75;;;13.20;48.70;;;;;;5121427;28;20228;-66
2022/03/19 03:45:59;;;;;;;20.77;15.90;;;13.20;48.70;;;;;;5121143;28;20059;-67
2022/03/19 03:48:25;;;;;;;18.55;15.30;;;13.20;48.70;;;;;;5121320;28;20028;-67
2022/03/19 03:50:54;;;;;;;18.17;15.07;;;13.20;48.70;;;;;;5121326;28;20043;-67
2022/03/19 03:53:23;;;;;;;20.42;16.17;;;13.20;48.80;;;;;;5121218;28;20031;-67
2022/03/19 03:55:48;;;;;;;22.05;16.63;;;13.20;48.80;;;;;;5121238;28;20232;-66
2022/03/19 03:58:14;;;;;;;20.92;15.80;;;13.10;48.80;;;;;;5121157;28;20090;-65
2022/03/19 04:00:40;;;;;;;19.40;14.68;;;13.20;48.80;;;;;;5121104;28;20035;-67
2022/03/19 04:03:06;;;;;;;20.98;15.82;;;13.10;48.80;;;;;;5121043;28;20042;-67
2022/03/19 04:05:35;;;;;;;20.48;14.98;;;13.10;48.80;;;;;;5121005;28;20389;-67
2022/03/19 04:08:03;;;;;;;18.48;15.30;;;13.10;48.80;;;;;;5120906;28;20038;-66
2022/03/19 04:10:29;;;;;;;19.38;14.75;;;13.10;48.80;;;;;;5120919;28;20334;-67
2022/03/19 04:12:55;;;;;;;20.92;15.68;;;13.10;48.80;;;;;;5120862;28;20028;-69
2022/03/19 04:15:21;;;;;;;19.80;14.70;;;13.10;48.80;;;;;;5120793;28;20092;-66
2022/03/19 04:17:47;;;;;;;21.27;15.88;;;13.10;48.80;;;;;;5120686;28;20031;-66
2022/03/19 04:20:13;;;;;;;20.05;15.80;;;13.10;48.90;;;;;;5119350;28;20027;-66
2022/03/19 04:22:44;;;;;;;20.25;15.73;;;13.10;48.90;;;;;;5120715;28;20105;-65
2022/03/19 04:25:18;;;;;;;18.35;15.48;;;13.10;48.90;;;;;;5120618;28;20015;-66
2022/03/19 04:27:46;;;;;;;18.13;14.40;;;13.10;48.90;;;;;;5120529;28;20024;-66
2022/03/19 04:30:13;;;;;;;20.35;16.20;;;13.10;48.90;;;;;;5120549;28;20352;-65
2022/03/19 04:32:46;;;;;;;18.95;15.15;;;13.10;48.90;;;;;;5120518;28;20100;-66
2022/03/19 04:38:03;;;;;;;21.05;15.90;;;13.10;48.90;;;;;;5120411;28;20614;-66
2022/03/19 04:40:30;;;;;;;20.02;15.68;;;13.10;48.90;;;;;;5120323;28;20330;-66
2022/03/19 04:42:56;;;;;;;19.80;15.90;;;13.10;48.90;;;;;;5120326;28;20027;-66
2022/03/19 04:45:22;;;;;;;18.63;15.07;;;13.10;48.90;;;;;;5120116;28;20064;-66
2022/03/19 04:47:48;;;;;;;19.95;15.60;;;13.10;48.90;;;;;;5119888;28;20024;-66
2022/03/19 04:50:14;;;;;;;19.98;15.68;;;13.10;49.00;;;;;;5120108;28;20043;-66
2022/03/19 04:52:41;;;;;;;21.67;16.17;;;13.10;48.90;;;;;;5120200;28;20035;-67
2022/03/19 04:55:09;;;;;;;19.90;15.52;;;13.10;48.90;;;;;;5120142;28;20236;-67
2022/03/19 04:57:35;;;;;;;20.48;15.57;;;13.10;48.90;;;;;;5120135;28;20041;-67
2022/03/19 05:00:02;;;;;;;20.73;15.85;;;13.10;48.90;;;;;;5120141;28;20392;-66
2022/03/19 05:02:27;;;;;;;19.23;15.48;;;13.10;48.90;;;;;;5119991;28;20032;-67
2022/03/19 05:04:54;;;;;;;20.92;16.60;;;13.10;49.00;;;;;;5120287;28;20096;-67
2022/03/19 05:07:21;;;;;;;19.98;15.63;;;13.10;48.90;;;;;;5119870;27;20095;-65
2022/03/19 05:12:35;;;;;;;21.42;16.05;;;13.10;49.00;;;;;;5119953;28;20027;-65
2022/03/19 05:15:00;;;;;;;21.85;16.77;;;13.10;49.00;;;;;;5119952;28;20611;-67
2022/03/19 05:17:26;;;;;;;22.02;16.50;;;13.10;48.90;;;;;;5119814;28;20331;-65
2022/03/19 05:19:53;;;;;;;18.85;15.57;;;13.10;48.90;;;;;;5119811;28;20323;-67
2022/03/19 05:22:19;;;;;;;20.70;16.08;;;13.00;48.90;;;;;;5119829;28;20054;-69
2022/03/19 05:24:45;;;;;;;19.95;15.18;;;13.10;48.90;;;;;;5119733;28;20023;-68
2022/03/19 05:27:12;;;;;;;21.05;16.63;;;13.10;48.90;;;;;;5119616;28;20034;-67
2022/03/19 05:29:38;;;;;;;20.98;16.25;;;13.10;48.90;;;;;;5119785;28;20356;-67
2022/03/19 05:32:05;;;;;;;21.85;16.15;;;13.10;48.90;;;;;;5119711;28;20051;-69
2022/03/19 05:34:31;;;;;;;20.13;16.30;;;13.10;49.00;;;;;;5119718;28;20071;-68
2022/03/19 05:36:58;;;;;;;20.42;15.43;;;13.00;48.90;;;;;;5118328;28;20028;-68
2022/03/19 05:39:25;;;;;;;19.17;15.38;;;13.10;48.90;;;;;;5119631;28;20023;-68
2022/03/19 05:41:51;;;;;;;18.65;15.00;;;13.10;48.90;;;;;;5119641;28;20031;-69
2022/03/19 05:44:16;;;;;;;21.20;15.82;;;13.00;48.80;;;;;;5119557;28;20080;-68
2022/03/19 05:46:42;;;;;;;19.13;15.57;;;13.10;48.90;;;;;;5119377;28;20051;-67
2022/03/19 05:49:08;;;;;;;19.25;15.40;;;13.10;48.80;;;;;;5119447;28;20027;-68
2022/03/19 05:51:34;;;;;;;20.08;15.73;;;13.10;48.80;;;;;;5119495;28;20023;-67
2022/03/19 05:54:00;;;;;;;18.75;14.52;;;13.10;48.90;;;;;;5119543;28;20008;-68
2022/03/19 05:56:25;;;;;;;20.15;15.05;;;13.10;48.80;;;;;;5119482;28;20042;-65
2022/03/19 05:58:52;;;;;;;19.35;15.63;;;13.10;48.80;;;;;;5120673;28;20258;-67
2022/03/19 06:01:18;;;;;;;21.45;16.30;;;13.10;48.80;;;;;;5123536;28;20030;-68
2022/03/19 06:03:43;;;;;;;17.85;14.15;;;13.10;48.80;;;;;;5123408;28;20028;-68
2022/03/19 06:06:10;;;;;;;19.05;15.23;;;13.10;48.70;;;;;;5123317;28;20434;-68
2022/03/19 06:08:35;;;;;;;20.35;16.50;;;13.10;48.70;;;;;;5123276;28;20216;-67
2022/03/19 06:11:02;;;;;;;20.08;16.02;;;13.10;48.70;;;;;;5123244;28;20059;-68
2022/03/19 06:13:27;;;;;;;20.30;16.08;;;13.10;48.70;;;;;;5123299;28;20028;-66
2022/03/19 06:15:53;;;;;;;21.05;16.20;;;13.10;48.60;;;;;;5123237;28;20015;-66
2022/03/19 06:18:19;;;;;;;18.42;15.48;;;13.10;48.60;;;;;;5121796;28;20031;-66
2022/03/19 06:20:44;;;;;;;20.45;15.73;;;13.10;48.60;;;;;;5123089;28;20257;-66
2022/03/19 06:23:10;;;;;;;20.10;16.13;;;13.20;48.60;;;;;;5123009;28;20034;-68
2022/03/19 06:25:36;;;;;;;19.30;14.93;;;13.20;48.60;;;;;;5122884;28;20019;-66
2022/03/19 06:28:02;;;;;;;18.60;14.98;;;13.20;48.60;;;;;;5122936;28;20339;-66
2022/03/19 06:30:29;;;;;;;20.60;15.93;;;13.20;48.50;;;;;;5122925;28;20340;-65
2022/03/19 06:32:56;;;;;;;17.92;14.27;;;13.20;48.50;;;;;;5122859;28;20224;-66
2022/03/19 06:38:06;;;;;;;22.17;15.63;;;13.20;48.40;;;;;;5122752;28;20034;-66
2022/03/19 06:40:32;;;;;;;19.33;15.40;;;13.20;48.40;;;;;;5122654;28;20264;-66
2022/03/19 06:42:57;;;;;;;19.55;14.88;;;13.20;48.30;;;;;;5122677;28;20367;-67
2022/03/19 06:45:24;;;;;;;19.23;14.80;;;13.30;48.30;;;;;;5122414;28;20059;-67
2022/03/19 06:47:49;;;;;;;19.65;15.07;;;13.30;48.30;;;;;;5122472;28;20023;-67
2022/03/19 06:50:16;;;;;;;19.58;15.57;;;13.30;48.30;;;;;;5121248;28;20536;-66
2022/03/19 06:52:42;;;;;;;17.30;14.80;;;13.30;48.20;;;;;;5122466;28;20016;-67
2022/03/19 06:55:08;;;;;;;20.10;15.27;;;13.30;48.30;;;;;;5122395;28;20061;-66
2022/03/19 06:57:34;;;;;;;18.23;14.70;;;13.30;48.30;;;;;;5122374;28;20051;-66
2022/03/19 07:00:00;;;;;;;19.10;14.70;;;13.30;48.20;;;;;;5122360;28;20026;-66
2022/03/19 07:02:26;;;;;;;19.20;15.40;;;13.30;48.20;;;;;;5122342;28;20028;-66
2022/03/19 07:04:51;;;;;;;20.33;16.20;;;13.30;48.20;;;;;;5122309;28;20026;-66
2022/03/19 07:07:18;;;;;;;19.73;15.63;;;13.30;48.20;;;;;;5122018;28;20087;-66
2022/03/19 07:09:43;;;;;;;19.58;15.15;;;13.30;48.20;;;;;;5120697;28;20020;-65
2022/03/19 07:12:11;;;;;;;18.67;15.43;;;13.30;48.20;;;;;;5122056;28;20022;-66
2022/03/19 07:14:37;;;;;;;19.85;15.38;;;13.30;48.20;;;;;;5122066;28;20023;-66
2022/03/19 07:17:04;;;;;;;19.20;15.10;;;13.30;48.20;;;;;;5122015;28;20019;-65
2022/03/19 07:19:30;;;;;;;21.58;15.75;;;13.30;48.20;;;;;;5121906;28;20027;-66
2022/03/19 07:21:56;;;;;;;19.70;15.45;;;13.40;48.20;;;;;;5121840;28;20087;-65
2022/03/19 07:24:22;;;;;;;19.77;15.70;;;13.30;48.10;;;;;;5120642;28;20023;-67
2022/03/19 07:26:48;;;;;;;19.15;15.38;;;13.40;48.20;;;;;;5121773;28;20020;-67
2022/03/19 07:29:15;;;;;;;19.58;15.88;;;13.40;48.20;;;;;;5121779;28;20035;-65
2022/03/19 07:31:41;;;;;;;17.77;14.70;;;13.30;48.10;;;;;;5121798;27;20228;-65
2022/03/19 07:34:07;;;;;;;19.08;15.43;;;13.40;48.10;;;;;;5121660;28;20045;-67
2022/03/19 07:36:32;;;;;;;19.52;15.73;;;13.40;48.10;;;;;;5121653;28;20036;-67
2022/03/19 07:38:58;;;;;;;19.23;15.55;;;13.40;48.10;;;;;;5121924;28;20034;-66
2022/03/19 07:44:08;;;;;;;20.20;16.17;;;13.40;48.00;;;;;;5121586;28;20050;-65
2022/03/19 07:46:35;;;;;;;19.23;15.23;;;13.40;48.00;;;;;;5121222;28;20255;-66
2022/03/19 07:49:01;;;;;;;19.25;15.27;;;13.40;48.00;;;;;;5121463;28;20331;-66
2022/03/19 07:51:28;;;;;;;18.52;14.52;;;13.40;47.90;;;;;;5121495;28;20027;-67
2022/03/19 07:53:54;;;;;;;19.10;15.43;;;13.40;47.90;;;;;;5121353;28;20029;-66
2022/03/19 07:56:20;;;;;;;21.02;15.35;;;13.40;47.90;;;;;;5121267;28;20273;-67
2022/03/19 07:58:50;;;;;;;19.48;15.82;;;13.50;47.80;;;;;;5121271;28;20071;-66
2022/03/19 08:01:17;;;;;;;21.25;15.88;;;13.50;47.80;;;;;;5121262;28;20033;-66
2022/03/19 08:03:44;;;;;;;19.95;15.20;;;13.50;47.70;;;;;;5119886;28;20103;-66
2022/03/19 08:06:11;;;;;;;17.77;14.25;;;13.50;47.70;;;;;;5119820;28;20061;-67
2022/03/19 08:08:37;;;;;;;19.33;15.70;;;13.50;47.70;;;;;;5121042;28;20340;-67
2022/03/19 08:11:04;;;;;;;19.10;15.65;;;13.50;47.60;;;;;;5121049;28;20030;-66
2022/03/19 08:13:30;;;;;;;19.80;15.43;;;13.50;47.70;;;;;;5121015;28;20020;-68
2022/03/19 08:15:56;;;;;;;19.50;15.05;;;13.60;47.70;;;;;;5120892;28;20220;-68
2022/03/19 08:18:23;;;;;;;19.40;14.93;;;13.60;47.70;;;;;;5120931;28;20031;-68
2022/03/19 08:20:49;;;;;;;20.02;15.00;;;13.60;47.70;;;;;;5120732;28;20100;-67
2022/03/19 08:23:19;;;;;;;18.65;14.48;;;13.60;47.70;;;;;;5120514;28;20024;-68
2022/03/19 08:25:45;;;;;;;18.63;14.63;;;13.50;47.60;;;;;;5120815;28;20023;-67
2022/03/19 08:28:10;;;;;;;20.00;14.93;;;13.50;47.70;;;;;;5120738;27;20086;-68
2022/03/19 08:30:36;;;;;;;21.40;16.58;;;13.60;47.70;;;;;;5120647;28;20020;-67
2022/03/19 08:33:02;;;;;;;22.50;16.55;;;13.60;47.70;;;;;;5120675;28;20023;-68
2022/03/19 08:35:28;;;;;;;17.55;14.40;;;13.60;47.60;;;;;;5120563;28;20571;-66
2022/03/19 08:40:15;;;;;;;18.33;14.35;;;13.60;47.60;;;;;;5119192;28;20023;-66
2022/03/19 08:40:40;;;;;;;19.40;15.27;;;13.60;47.60;;;;;;5120602;28;20416;-67
2022/03/19 08:43:05;;;;;;;20.25;14.80;;;13.70;47.60;;;;;;5120519;28;20045;-66
2022/03/19 08:45:31;;;;;;;19.27;15.13;;;13.60;47.50;;;;;;5120358;28;20085;-67
2022/03/19 08:47:57;;;;;;;21.38;15.32;;;13.60;47.50;;;;;;5120376;28;20034;-67
2022/03/19 08:50:24;;;;;;;18.75;15.00;;;13.70;47.50;;;;;;5120399;28;20020;-66
2022/03/19 08:52:50;;;;;;;18.85;14.50;;;13.70;47.50;;;;;;5120418;28;20012;-67
2022/03/19 08:55:16;;;;;;;18.58;14.35;;;13.70;47.50;;;;;;5120296;28;20071;-67
2022/03/19 08:57:41;;;;;;;19.95;15.20;;;13.70;47.40;;;;;;5120265;28;20106;-66
2022/03/19 09:00:08;;;;;;;19.55;14.77;;;13.70;47.40;;;;;;5120235;28;20451;-67
2022/03/19 09:02:36;;;;;;;18.95;14.82;;;13.70;47.40;;;;;;5120248;28;20028;-66
2022/03/19 09:05:03;;;;;;;17.98;14.93;;;13.70;47.40;;;;;;5120228;28;20035;-66
2022/03/19 09:07:28;;;;;;;22.02;15.77;;;13.70;47.40;;;;;;5118780;28;20042;-65
2022/03/19 09:09:54;;;;;;;20.17;15.52;;;13.70;47.50;;;;;;5120250;28;20079;-66
2022/03/19 09:12:25;;;;;;;18.17;14.40;;;13.70;47.50;;;;;;5118767;28;20019;-67
2022/03/19 09:14:51;;;;;;;18.20;15.00;;;13.70;47.40;;;;;;5120146;28;20060;-67
2022/03/19 09:17:17;;;;;;;19.55;15.52;;;13.70;47.40;;;;;;5119993;28;20034;-66
2022/03/19 09:19:43;;;;;;;18.10;14.55;;;13.70;47.40;;;;;;5119994;28;20027;-66
2022/03/19 09:22:09;;;;;;;19.20;14.55;;;13.80;47.50;;;;;;5119995;28;20082;-67
2022/03/19 09:24:34;;;;;;;18.00;14.82;;;13.80;47.40;;;;;;5118724;28;20311;-67
2022/03/19 09:27:00;;;;;;;18.52;15.25;;;13.80;47.40;;;;;;5119888;28;20031;-67
2022/03/19 09:29:27;;;;;;;19.13;14.68;;;13.80;48.00;;;;;;5119871;28;20024;-66
2022/03/19 09:31:52;;;;;;;18.02;14.52;;;13.80;47.40;;;;;;5119915;28;20016;-66
2022/03/19 09:34:18;;;;;;;17.65;14.35;;;13.70;47.30;;;;;;5121928;28;20020;-66
2022/03/19 09:36:47;;;;;;;18.35;14.68;;;13.80;47.30;;;;;;5124096;28;20096;-66
2022/03/19 09:39:16;;;;;;;20.77;15.80;;;13.80;47.40;;;;;;5122915;28;20027;-67
2022/03/19 09:41:42;;;;;;;19.45;15.10;;;13.80;47.40;;;;;;5124347;28;20298;-67
2022/03/19 09:44:11;;;;;;;21.25;14.95;;;13.80;47.30;;;;;;5124004;28;20027;-66
2022/03/19 09:46:37;;;;;;;19.70;15.15;;;13.80;47.40;;;;;;5123902;28;20145;-66
2022/03/19 09:49:03;;;;;;;18.17;14.50;;;13.80;47.30;;;;;;5123945;28;20060;-66
2022/03/19 09:51:32;;;;;;;18.50;14.30;;;13.80;47.20;;;;;;5122562;28;20019;-66
2022/03/19 09:53:57;;;;;;;19.13;14.80;;;13.80;47.30;;;;;;5123873;27;20074;-66
2022/03/19 09:56:23;;;;;;;20.88;15.52;;;13.80;47.20;;;;;;5123762;28;20035;-68
2022/03/19 09:58:49;;;;;;;18.17;14.65;;;13.90;47.30;;;;;;5123770;28;20312;-66
2022/03/19 10:01:18;;;;;;;19.90;15.25;;;13.90;47.40;;;;;;5123709;28;20031;-67
2022/03/19 10:03:45;;;;;;;17.98;14.57;;;13.90;47.30;;;;;;5123676;28;20044;-66
2022/03/19 10:09:00;;;;;;;17.13;14.32;;;13.90;47.40;;;;;;5123520;28;20093;-66
2022/03/19 10:11:35;;;;;;;19.00;15.07;;;13.80;47.30;;;;;;5123565;28;20047;-66
2022/03/19 10:14:06;;;;;;;19.33;15.32;;;13.90;47.40;;;;;;5123582;28;20042;-66
2022/03/19 10:16:34;;;;;;;18.73;14.40;;;13.90;47.60;;;;;;5123491;28;20373;-66
2022/03/19 10:19:03;;;;;;;17.00;13.88;;;13.80;47.40;;;;;;5123417;28;20032;-67
2022/03/19 10:21:29;;;;;;;;;;;13.90;47.50;;;;;;5124070;28;20047;-67
2022/03/19 10:23:59;;;;;;;18.38;14.30;;;13.90;47.50;;;;;;5123184;28;19931;-66
2022/03/19 10:26:35;;;;;;;18.10;13.60;;;13.90;47.50;;;;;;5123143;28;20016;-66
2022/03/19 10:29:04;;;;;;;17.80;13.57;;;13.90;47.40;;;;;;5123184;28;20048;-67
2022/03/19 10:31:32;;;;;;;19.67;14.60;;;13.80;47.40;;;;;;5123175;28;20049;-67
2022/03/19 10:33:58;;;;;;;18.80;13.82;;;13.80;47.40;;;;;;5123118;28;20212;-66
2022/03/19 10:36:35;;;;;;;20.45;14.15;;;13.90;47.50;;;;;;5123503;28;20090;-65
2022/03/19 10:39:26;;;;;;;17.63;13.90;;;13.80;47.40;;;;;;5123100;27;20027;-66
2022/03/19 10:41:54;;;;;;;17.30;13.85;;;13.90;47.50;;;;;;5122996;28;20031;-65
2022/03/19 10:44:24;;;;;;;20.00;15.20;;;13.90;47.40;;;;;;5122405;28;20027;-66
2022/03/19 10:46:54;;;;;;;17.17;13.52;;;13.90;47.40;;;;;;5122830;28;20323;-67
2022/03/19 10:49:29;;;;;;;16.98;13.77;;;13.90;47.30;;;;;;5122857;28;20032;-67
2022/03/19 10:52:01;;;;;;;17.73;14.43;;;13.90;47.40;;;;;;5122755;28;20012;-66
2022/03/19 10:54:28;;;;;;;18.23;14.02;;;13.90;47.30;;;;;;5122688;28;20024;-66
2022/03/19 10:56:54;;;;;;;19.25;15.30;;;13.90;47.40;;;;;;5122679;28;20024;-67
2022/03/19 10:59:20;;;;;;;18.73;14.57;;;13.90;47.40;;;;;;5122607;28;20181;-66
2022/03/19 11:01:51;;;;;;;20.20;14.90;;;13.90;47.40;;;;;;5122631;27;20102;-67
2022/03/19 11:04:18;;;;;;;20.58;15.15;;;13.90;47.50;;;;;;5122519;28;20085;-67
2022/03/19 11:06:45;;;;;;;18.58;14.25;;;13.90;47.50;;;;;;5122403;28;20042;-66
2022/03/19 11:09:15;;;;;;;17.15;13.73;;;13.90;47.50;;;;;;5122449;28;20019;-67
2022/03/19 11:11:46;;;;;;;18.10;14.25;;;13.90;47.50;;;;;;5122327;28;20034;-67
2022/03/19 11:14:22;;;;;;;17.65;14.27;;;13.90;47.50;;;;;;5121033;28;20018;-66
2022/03/19 11:17:23;;;;;;;17.95;13.77;;;13.90;47.50;;;;;;5122250;27;20030;-66
2022/03/19 11:19:40;;;;;;;17.20;13.77;;;13.90;47.40;;;;;;5122046;28;20066;-67
2022/03/19 11:22:06;;;;;;;16.63;13.65;;;13.90;47.40;;;;;;5122110;28;20065;-67
2022/03/19 11:24:38;;;;;;;17.38;13.95;;;14.00;47.50;;;;;;5122122;28;20055;-67
2022/03/19 11:27:04;;;;;;;18.25;13.52;;;14.00;47.40;;;;;;5122076;28;20039;-67
2022/03/19 11:29:31;;;;;;;18.67;14.23;;;14.00;47.50;;;;;;5121984;28;20028;-67
2022/03/19 11:31:58;;;;;;;17.60;14.07;;;14.00;47.50;;;;;;5121970;28;20059;-67
2022/03/19 11:34:24;;;;;;;17.48;13.60;;;13.90;47.30;;;;;;5121903;28;20038;-66
2022/03/19 11:36:57;;;;;;;17.65;14.52;;;14.00;47.40;;;;;;5121832;28;20035;-68
2022/03/19 11:39:24;;;;;;;19.95;14.43;;;14.00;47.30;;;;;;5121818;28;20100;-66
2022/03/19 11:41:51;;;;;;;20.50;14.55;;;14.00;47.20;;;;;;5121792;28;20034;-66
2022/03/19 11:44:23;;;;;;;16.75;13.13;;;14.10;47.20;;;;;;5121680;28;20038;-67
2022/03/19 11:47:00;;;;;;;16.80;13.60;;;14.10;47.10;;;;;;5121551;28;20332;-66
2022/03/19 11:49:55;;;;;;;16.83;13.93;;;14.10;47.00;;;;;;5121457;28;20020;-66
2022/03/19 11:52:26;;;;;;;17.85;14.68;;;14.10;47.20;;;;;;5121534;28;20512;-66
2022/03/19 11:55:04;;;;;;;17.75;13.90;;;14.10;47.20;;;;;;5121469;28;20023;-67
2022/03/19 11:57:49;;;;;;;17.13;14.18;;;14.10;47.10;;;;;;5120473;28;20019;-66
2022/03/19 12:00:18;;;;;;;17.63;13.77;;;14.20;46.90;;;;;;5120040;28;20315;-67
2022/03/19 12:03:12;;;;;;;18.17;14.65;;;14.30;46.70;;;;;;5119986;28;20023;-66
2022/03/19 12:05:46;;;;;;;16.08;13.40;;;14.40;46.70;;;;;;5119981;28;20030;-66
2022/03/19 12:08:26;;;;;;;17.25;14.07;;;14.40;46.60;;;;;;5121070;28;20233;-65
2022/03/19 12:10:55;;;;;;;18.20;13.93;;;14.40;46.50;;;;;;5121179;28;20131;-67
2022/03/19 12:13:26;;;;;;;16.35;13.25;;;14.50;46.40;;;;;;5121039;28;20019;-66
2022/03/19 12:15:53;;;;;;;16.25;13.40;;;14.50;46.40;;;;;;5120966;28;20089;-66
2022/03/19 12:18:41;;;;;;;18.08;14.40;;;14.60;46.30;;;;;;5120987;28;20140;-67
2022/03/19 12:21:10;;;;;;;18.58;14.23;;;14.60;46.30;;;;;;5120917;28;20027;-67
2022/03/19 12:23:40;;;;;;;18.70;13.88;;;14.60;46.40;;;;;;5120853;28;20100;-65
2022/03/19 12:26:08;;;;;;;19.75;14.18;;;14.60;46.30;;;;;;5120782;28;20031;-66
2022/03/19 12:28:34;;;;;;;19.35;15.15;;;14.60;46.20;;;;;;5120761;28;20232;-65
2022/03/19 12:31:11;;;;;;;19.58;15.43;;;14.60;46.20;;;;;;5120715;28;20024;-66
2022/03/19 12:33:38;;;;;;;18.52;14.38;;;14.60;46.30;;;;;;5120645;28;20019;-66
2022/03/19 12:36:16;;;;;;;16.67;13.60;;;14.60;46.30;;;;;;5120621;28;20246;-65
2022/03/19 12:38:42;;;;;;;17.33;14.18;;;14.70;46.30;;;;;;5120537;28;20019;-66
2022/03/19 12:41:23;;;;;;;18.00;15.27;;;14.70;46.30;;;;;;5120436;28;20027;-67
2022/03/19 12:43:51;;;;;;;19.35;14.82;;;14.70;46.30;;;;;;5120415;28;20021;-66
2022/03/19 12:46:27;;;;;;;17.25;14.00;;;14.70;46.20;;;;;;5120237;28;20336;-66
2022/03/19 12:49:10;;;;;;;15.90;13.30;;;14.70;46.30;;;;;;5120338;28;20094;-66